sensor_id;sensor_type;location;lat;lon;timestamp;P1;durP1;ratioP1;P2;durP2;ratioP2
23716;SDS011;22094;52.130;5.598;2023-07-22T00:02:21;29.95;;;17.10;;
23716;SDS011;22094;52.130;5.598;2023-07-22T00:04:48;30.88;;;17.35;;
23716;SDS011;22094;52.130;5.598;2023-07-22T00:07:17;31.63;;;17.35;;
23716;SDS011;22094;52.130;5.598;2023-07-22T00:09:43;33.65;;;18.10;;
23716;SDS011;22094;52.130;5.598;2023-07-22T00:12:09;34.30;;;19.08;;
23716;SDS011;22094;52.130;5.598;2023-07-22T00:14:39;33.58;;;18.13;;
23716;SDS011;22094;52.130;5.598;2023-07-22T00:17:06;32.50;;;17.27;;
23716;SDS011;22094;52.130;5.598;2023-07-22T00:19:32;30.05;;;17.52;;
23716;SDS011;22094;52.130;5.598;2023-07-22T00:21:58;33.40;;;18.42;;
23716;SDS011;22094;52.130;5.598;2023-07-22T00:24:24;32.90;;;18.08;;
23716;SDS011;22094;52.130;5.598;2023-07-22T00:26:50;37.15;;;18.63;;
23716;SDS011;22094;52.130;5.598;2023-07-22T00:29:16;33.50;;;18.48;;
23716;SDS011;22094;52.130;5.598;2023-07-22T00:31:42;35.35;;;19.58;;
23716;SDS011;22094;52.130;5.598;2023-07-22T00:34:07;37.00;;;19.83;;
23716;SDS011;22094;52.130;5.598;2023-07-22T00:36:33;38.47;;;20.50;;
23716;SDS011;22094;52.130;5.598;2023-07-22T00:38:59;39.13;;;20.20;;
23716;SDS011;22094;52.130;5.598;2023-07-22T00:41:26;42.15;;;21.42;;
23716;SDS011;22094;52.130;5.598;2023-07-22T00:43:52;39.47;;;20.75;;
23716;SDS011;22094;52.130;5.598;2023-07-22T00:46:17;39.95;;;21.23;;
23716;SDS011;22094;52.130;5.598;2023-07-22T00:48:43;40.10;;;20.67;;
23716;SDS011;22094;52.130;5.598;2023-07-22T00:51:09;38.65;;;21.17;;
23716;SDS011;22094;52.130;5.598;2023-07-22T00:53:34;39.08;;;21.17;;
23716;SDS011;22094;52.130;5.598;2023-07-22T00:56:00;42.60;;;21.38;;
23716;SDS011;22094;52.130;5.598;2023-07-22T00:58:25;50.78;;;22.15;;
23716;SDS011;22094;52.130;5.598;2023-07-22T01:00:51;45.10;;;21.58;;
23716;SDS011;22094;52.130;5.598;2023-07-22T01:03:17;41.72;;;22.42;;
23716;SDS011;22094;52.130;5.598;2023-07-22T01:05:44;40.63;;;20.67;;
23716;SDS011;22094;52.130;5.598;2023-07-22T01:08:12;42.50;;;21.83;;
23716;SDS011;22094;52.130;5.598;2023-07-22T01:10:38;42.65;;;21.83;;
23716;SDS011;22094;52.130;5.598;2023-07-22T01:13:04;41.70;;;20.65;;
23716;SDS011;22094;52.130;5.598;2023-07-22T01:15:30;48.35;;;23.00;;
23716;SDS011;22094;52.130;5.598;2023-07-22T01:17:56;42.10;;;23.35;;
23716;SDS011;22094;52.130;5.598;2023-07-22T01:20:26;48.72;;;24.33;;
23716;SDS011;22094;52.130;5.598;2023-07-22T01:22:53;47.25;;;23.23;;
23716;SDS011;22094;52.130;5.598;2023-07-22T01:25:20;46.03;;;24.27;;
23716;SDS011;22094;52.130;5.598;2023-07-22T01:27:51;48.85;;;24.25;;
23716;SDS011;22094;52.130;5.598;2023-07-22T01:30:17;52.75;;;24.73;;
23716;SDS011;22094;52.130;5.598;2023-07-22T01:32:44;52.75;;;24.23;;
23716;SDS011;22094;52.130;5.598;2023-07-22T01:35:10;49.75;;;24.92;;
23716;SDS011;22094;52.130;5.598;2023-07-22T01:37:35;47.72;;;23.70;;
23716;SDS011;22094;52.130;5.598;2023-07-22T01:40:01;45.40;;;24.10;;
23716;SDS011;22094;52.130;5.598;2023-07-22T01:42:37;48.17;;;25.45;;
23716;SDS011;22094;52.130;5.598;2023-07-22T01:45:03;50.08;;;24.55;;
23716;SDS011;22094;52.130;5.598;2023-07-22T01:47:32;53.80;;;26.17;;
23716;SDS011;22094;52.130;5.598;2023-07-22T01:50:04;57.20;;;26.73;;
23716;SDS011;22094;52.130;5.598;2023-07-22T01:52:33;55.15;;;26.67;;
23716;SDS011;22094;52.130;5.598;2023-07-22T01:54:59;55.17;;;27.80;;
23716;SDS011;22094;52.130;5.598;2023-07-22T01:57:25;54.00;;;27.25;;
23716;SDS011;22094;52.130;5.598;2023-07-22T01:59:50;54.45;;;26.58;;
23716;SDS011;22094;52.130;5.598;2023-07-22T02:02:16;50.35;;;26.27;;
23716;SDS011;22094;52.130;5.598;2023-07-22T02:04:41;50.67;;;25.80;;
23716;SDS011;22094;52.130;5.598;2023-07-22T02:07:07;55.63;;;27.70;;
23716;SDS011;22094;52.130;5.598;2023-07-22T02:09:33;59.53;;;29.08;;
23716;SDS011;22094;52.130;5.598;2023-07-22T02:11:59;58.20;;;28.08;;
23716;SDS011;22094;52.130;5.598;2023-07-22T02:14:25;58.78;;;28.83;;
23716;SDS011;22094;52.130;5.598;2023-07-22T02:16:51;64.03;;;30.02;;
23716;SDS011;22094;52.130;5.598;2023-07-22T02:19:16;58.38;;;29.02;;
23716;SDS011;22094;52.130;5.598;2023-07-22T02:21:42;67.68;;;30.83;;
23716;SDS011;22094;52.130;5.598;2023-07-22T02:24:07;63.53;;;29.58;;
23716;SDS011;22094;52.130;5.598;2023-07-22T02:26:34;67.47;;;29.98;;
23716;SDS011;22094;52.130;5.598;2023-07-22T02:28:59;61.13;;;29.95;;
23716;SDS011;22094;52.130;5.598;2023-07-22T02:31:25;68.53;;;31.50;;
23716;SDS011;22094;52.130;5.598;2023-07-22T02:33:50;69.45;;;31.67;;
23716;SDS011;22094;52.130;5.598;2023-07-22T02:36:16;69.80;;;31.75;;
23716;SDS011;22094;52.130;5.598;2023-07-22T02:38:42;62.08;;;29.90;;
23716;SDS011;22094;52.130;5.598;2023-07-22T02:41:07;63.58;;;31.63;;
23716;SDS011;22094;52.130;5.598;2023-07-22T02:43:36;66.57;;;30.88;;
23716;SDS011;22094;52.130;5.598;2023-07-22T02:46:02;68.07;;;32.33;;
23716;SDS011;22094;52.130;5.598;2023-07-22T02:48:30;70.10;;;30.88;;
23716;SDS011;22094;52.130;5.598;2023-07-22T02:51:05;73.30;;;31.58;;
23716;SDS011;22094;52.130;5.598;2023-07-22T02:53:32;74.72;;;31.27;;
23716;SDS011;22094;52.130;5.598;2023-07-22T02:55:59;62.90;;;29.40;;
23716;SDS011;22094;52.130;5.598;2023-07-22T02:58:25;63.88;;;30.67;;
23716;SDS011;22094;52.130;5.598;2023-07-22T03:00:51;61.45;;;29.50;;
23716;SDS011;22094;52.130;5.598;2023-07-22T03:03:16;70.15;;;31.60;;
23716;SDS011;22094;52.130;5.598;2023-07-22T03:05:44;67.45;;;30.95;;
23716;SDS011;22094;52.130;5.598;2023-07-22T03:08:10;67.10;;;29.73;;
23716;SDS011;22094;52.130;5.598;2023-07-22T03:10:36;80.22;;;31.92;;
23716;SDS011;22094;52.130;5.598;2023-07-22T03:13:02;76.25;;;31.58;;
23716;SDS011;22094;52.130;5.598;2023-07-22T03:15:33;73.05;;;30.92;;
23716;SDS011;22094;52.130;5.598;2023-07-22T03:17:58;72.40;;;32.45;;
23716;SDS011;22094;52.130;5.598;2023-07-22T03:20:25;76.38;;;32.13;;
23716;SDS011;22094;52.130;5.598;2023-07-22T03:22:53;72.80;;;33.00;;
23716;SDS011;22094;52.130;5.598;2023-07-22T03:25:19;75.18;;;32.60;;
23716;SDS011;22094;52.130;5.598;2023-07-22T03:27:50;68.93;;;31.02;;
23716;SDS011;22094;52.130;5.598;2023-07-22T03:30:16;77.22;;;33.50;;
23716;SDS011;22094;52.130;5.598;2023-07-22T03:32:43;73.20;;;32.28;;
23716;SDS011;22094;52.130;5.598;2023-07-22T03:35:10;72.45;;;32.33;;
23716;SDS011;22094;52.130;5.598;2023-07-22T03:37:36;72.63;;;32.65;;
23716;SDS011;22094;52.130;5.598;2023-07-22T03:40:03;74.65;;;33.10;;
23716;SDS011;22094;52.130;5.598;2023-07-22T03:42:58;74.55;;;31.83;;
23716;SDS011;22094;52.130;5.598;2023-07-22T03:45:24;76.40;;;31.77;;
23716;SDS011;22094;52.130;5.598;2023-07-22T03:47:51;70.68;;;31.73;;
23716;SDS011;22094;52.130;5.598;2023-07-22T03:50:18;71.57;;;32.28;;
23716;SDS011;22094;52.130;5.598;2023-07-22T03:52:43;66.45;;;32.05;;
23716;SDS011;22094;52.130;5.598;2023-07-22T03:55:09;74.32;;;32.00;;
23716;SDS011;22094;52.130;5.598;2023-07-22T03:57:35;66.22;;;30.27;;
23716;SDS011;22094;52.130;5.598;2023-07-22T04:00:01;71.50;;;30.50;;
23716;SDS011;22094;52.130;5.598;2023-07-22T04:02:28;63.85;;;30.48;;
23716;SDS011;22094;52.130;5.598;2023-07-22T04:04:54;67.80;;;30.75;;
23716;SDS011;22094;52.130;5.598;2023-07-22T04:07:21;70.55;;;30.48;;
23716;SDS011;22094;52.130;5.598;2023-07-22T04:09:47;68.15;;;30.63;;
23716;SDS011;22094;52.130;5.598;2023-07-22T04:12:13;71.35;;;29.80;;
23716;SDS011;22094;52.130;5.598;2023-07-22T04:14:39;68.75;;;31.02;;
23716;SDS011;22094;52.130;5.598;2023-07-22T04:17:05;72.25;;;31.58;;
23716;SDS011;22094;52.130;5.598;2023-07-22T04:19:31;66.10;;;31.08;;
23716;SDS011;22094;52.130;5.598;2023-07-22T04:21:56;65.78;;;30.25;;
23716;SDS011;22094;52.130;5.598;2023-07-22T04:24:22;63.63;;;29.90;;
23716;SDS011;22094;52.130;5.598;2023-07-22T04:26:48;69.35;;;30.33;;
23716;SDS011;22094;52.130;5.598;2023-07-22T04:29:13;60.58;;;29.33;;
23716;SDS011;22094;52.130;5.598;2023-07-22T04:31:39;63.22;;;29.85;;
23716;SDS011;22094;52.130;5.598;2023-07-22T04:34:05;63.97;;;29.67;;
23716;SDS011;22094;52.130;5.598;2023-07-22T04:36:31;63.80;;;30.02;;
23716;SDS011;22094;52.130;5.598;2023-07-22T04:38:57;65.50;;;30.02;;
23716;SDS011;22094;52.130;5.598;2023-07-22T04:41:23;60.90;;;30.42;;
23716;SDS011;22094;52.130;5.598;2023-07-22T04:43:49;63.95;;;30.27;;
23716;SDS011;22094;52.130;5.598;2023-07-22T04:46:16;57.58;;;30.30;;
23716;SDS011;22094;52.130;5.598;2023-07-22T04:48:42;58.60;;;30.73;;
23716;SDS011;22094;52.130;5.598;2023-07-22T04:51:08;64.32;;;29.77;;
23716;SDS011;22094;52.130;5.598;2023-07-22T04:53:33;62.72;;;30.13;;
23716;SDS011;22094;52.130;5.598;2023-07-22T04:55:59;56.00;;;27.58;;
23716;SDS011;22094;52.130;5.598;2023-07-22T04:58:24;53.00;;;27.95;;
23716;SDS011;22094;52.130;5.598;2023-07-22T05:00:50;52.63;;;27.58;;
23716;SDS011;22094;52.130;5.598;2023-07-22T05:03:16;48.95;;;26.38;;
23716;SDS011;22094;52.130;5.598;2023-07-22T05:05:43;48.90;;;26.77;;
23716;SDS011;22094;52.130;5.598;2023-07-22T05:08:08;50.20;;;27.13;;
23716;SDS011;22094;52.130;5.598;2023-07-22T05:10:35;45.80;;;24.52;;
23716;SDS011;22094;52.130;5.598;2023-07-22T05:13:02;46.33;;;25.98;;
23716;SDS011;22094;52.130;5.598;2023-07-22T05:15:27;49.17;;;25.55;;
23716;SDS011;22094;52.130;5.598;2023-07-22T05:17:53;40.97;;;22.95;;
23716;SDS011;22094;52.130;5.598;2023-07-22T05:20:18;41.97;;;24.00;;
23716;SDS011;22094;52.130;5.598;2023-07-22T05:22:44;43.63;;;24.17;;
23716;SDS011;22094;52.130;5.598;2023-07-22T05:25:10;43.10;;;23.95;;
23716;SDS011;22094;52.130;5.598;2023-07-22T05:27:36;43.08;;;24.00;;
23716;SDS011;22094;52.130;5.598;2023-07-22T05:30:01;39.47;;;22.58;;
23716;SDS011;22094;52.130;5.598;2023-07-22T05:32:28;42.45;;;22.92;;
23716;SDS011;22094;52.130;5.598;2023-07-22T05:34:54;36.10;;;22.50;;
23716;SDS011;22094;52.130;5.598;2023-07-22T05:37:21;38.85;;;22.70;;
23716;SDS011;22094;52.130;5.598;2023-07-22T05:39:47;37.80;;;22.33;;
23716;SDS011;22094;52.130;5.598;2023-07-22T05:42:13;33.80;;;21.00;;
23716;SDS011;22094;52.130;5.598;2023-07-22T05:44:38;39.92;;;22.42;;
23716;SDS011;22094;52.130;5.598;2023-07-22T05:47:04;36.15;;;21.90;;
23716;SDS011;22094;52.130;5.598;2023-07-22T05:49:30;31.98;;;20.17;;
23716;SDS011;22094;52.130;5.598;2023-07-22T05:51:56;38.00;;;20.95;;
23716;SDS011;22094;52.130;5.598;2023-07-22T05:54:22;34.97;;;21.10;;
23716;SDS011;22094;52.130;5.598;2023-07-22T05:56:47;36.60;;;20.75;;
23716;SDS011;22094;52.130;5.598;2023-07-22T05:59:13;33.58;;;20.88;;
23716;SDS011;22094;52.130;5.598;2023-07-22T06:01:39;31.35;;;20.23;;
23716;SDS011;22094;52.130;5.598;2023-07-22T06:04:05;34.65;;;19.67;;
23716;SDS011;22094;52.130;5.598;2023-07-22T06:06:31;39.70;;;21.27;;
23716;SDS011;22094;52.130;5.598;2023-07-22T06:08:57;32.30;;;20.10;;
23716;SDS011;22094;52.130;5.598;2023-07-22T06:11:22;37.60;;;20.25;;
23716;SDS011;22094;52.130;5.598;2023-07-22T06:13:48;32.83;;;19.73;;
23716;SDS011;22094;52.130;5.598;2023-07-22T06:16:14;34.50;;;20.13;;
23716;SDS011;22094;52.130;5.598;2023-07-22T06:18:39;35.60;;;21.10;;
23716;SDS011;22094;52.130;5.598;2023-07-22T06:21:05;33.83;;;19.45;;
23716;SDS011;22094;52.130;5.598;2023-07-22T06:23:31;32.58;;;19.98;;
23716;SDS011;22094;52.130;5.598;2023-07-22T06:25:57;35.10;;;20.63;;
23716;SDS011;22094;52.130;5.598;2023-07-22T06:28:23;32.95;;;20.38;;
23716;SDS011;22094;52.130;5.598;2023-07-22T06:30:48;33.03;;;21.27;;
23716;SDS011;22094;52.130;5.598;2023-07-22T06:33:14;37.90;;;21.10;;
23716;SDS011;22094;52.130;5.598;2023-07-22T06:35:41;33.47;;;21.77;;
23716;SDS011;22094;52.130;5.598;2023-07-22T06:38:07;33.83;;;21.30;;
23716;SDS011;22094;52.130;5.598;2023-07-22T06:40:33;31.35;;;20.52;;
23716;SDS011;22094;52.130;5.598;2023-07-22T06:42:58;27.50;;;19.65;;
23716;SDS011;22094;52.130;5.598;2023-07-22T06:45:24;28.27;;;17.60;;
23716;SDS011;22094;52.130;5.598;2023-07-22T06:47:50;24.33;;;17.35;;
23716;SDS011;22094;52.130;5.598;2023-07-22T06:50:15;24.20;;;17.27;;
23716;SDS011;22094;52.130;5.598;2023-07-22T06:52:41;28.38;;;17.17;;
23716;SDS011;22094;52.130;5.598;2023-07-22T06:55:07;23.75;;;16.60;;
23716;SDS011;22094;52.130;5.598;2023-07-22T06:57:33;27.38;;;17.15;;
23716;SDS011;22094;52.130;5.598;2023-07-22T06:59:59;23.98;;;16.75;;
23716;SDS011;22094;52.130;5.598;2023-07-22T07:02:25;27.65;;;17.10;;
23716;SDS011;22094;52.130;5.598;2023-07-22T07:04:52;23.15;;;16.67;;
23716;SDS011;22094;52.130;5.598;2023-07-22T07:07:17;27.52;;;16.60;;
23716;SDS011;22094;52.130;5.598;2023-07-22T07:09:43;27.75;;;16.92;;
23716;SDS011;22094;52.130;5.598;2023-07-22T07:12:10;23.65;;;16.20;;
23716;SDS011;22094;52.130;5.598;2023-07-22T07:14:36;23.38;;;15.93;;
23716;SDS011;22094;52.130;5.598;2023-07-22T07:17:02;23.48;;;16.10;;
23716;SDS011;22094;52.130;5.598;2023-07-22T07:19:28;24.95;;;14.85;;
23716;SDS011;22094;52.130;5.598;2023-07-22T07:21:54;21.13;;;15.18;;
23716;SDS011;22094;52.130;5.598;2023-07-22T07:24:19;23.13;;;15.73;;
23716;SDS011;22094;52.130;5.598;2023-07-22T07:26:45;23.30;;;16.23;;
23716;SDS011;22094;52.130;5.598;2023-07-22T07:29:11;24.58;;;16.45;;
23716;SDS011;22094;52.130;5.598;2023-07-22T07:31:38;26.48;;;16.30;;
23716;SDS011;22094;52.130;5.598;2023-07-22T07:34:04;26.15;;;16.17;;
23716;SDS011;22094;52.130;5.598;2023-07-22T07:36:33;23.30;;;15.98;;
23716;SDS011;22094;52.130;5.598;2023-07-22T07:38:58;24.70;;;16.00;;
23716;SDS011;22094;52.130;5.598;2023-07-22T07:41:24;22.60;;;16.05;;
23716;SDS011;22094;52.130;5.598;2023-07-22T07:43:50;23.83;;;15.73;;
23716;SDS011;22094;52.130;5.598;2023-07-22T07:46:16;21.58;;;14.57;;
23716;SDS011;22094;52.130;5.598;2023-07-22T07:48:53;22.50;;;15.07;;
23716;SDS011;22094;52.130;5.598;2023-07-22T07:51:21;23.60;;;14.95;;
23716;SDS011;22094;52.130;5.598;2023-07-22T07:53:49;21.75;;;14.00;;
23716;SDS011;22094;52.130;5.598;2023-07-22T07:56:15;20.60;;;15.18;;
23716;SDS011;22094;52.130;5.598;2023-07-22T07:58:42;21.63;;;15.27;;
23716;SDS011;22094;52.130;5.598;2023-07-22T08:01:08;20.63;;;14.02;;
23716;SDS011;22094;52.130;5.598;2023-07-22T08:03:35;21.90;;;14.05;;
23716;SDS011;22094;52.130;5.598;2023-07-22T08:06:01;22.00;;;13.45;;
23716;SDS011;22094;52.130;5.598;2023-07-22T08:08:28;19.27;;;12.80;;
23716;SDS011;22094;52.130;5.598;2023-07-22T08:11:03;24.45;;;13.90;;
23716;SDS011;22094;52.130;5.598;2023-07-22T08:13:38;19.52;;;12.80;;
23716;SDS011;22094;52.130;5.598;2023-07-22T08:16:04;17.25;;;12.75;;
23716;SDS011;22094;52.130;5.598;2023-07-22T08:18:31;22.10;;;13.52;;
23716;SDS011;22094;52.130;5.598;2023-07-22T08:20:58;18.88;;;12.77;;
23716;SDS011;22094;52.130;5.598;2023-07-22T08:23:24;16.20;;;11.27;;
23716;SDS011;22094;52.130;5.598;2023-07-22T08:25:50;16.45;;;12.13;;
23716;SDS011;22094;52.130;5.598;2023-07-22T08:28:16;16.17;;;11.43;;
23716;SDS011;22094;52.130;5.598;2023-07-22T08:30:42;17.67;;;11.73;;
23716;SDS011;22094;52.130;5.598;2023-07-22T08:33:08;15.00;;;10.68;;
23716;SDS011;22094;52.130;5.598;2023-07-22T08:35:36;16.45;;;10.20;;
23716;SDS011;22094;52.130;5.598;2023-07-22T08:38:02;15.48;;;9.88;;
23716;SDS011;22094;52.130;5.598;2023-07-22T08:40:38;16.17;;;9.68;;
23716;SDS011;22094;52.130;5.598;2023-07-22T08:43:05;13.90;;;9.18;;
23716;SDS011;22094;52.130;5.598;2023-07-22T08:45:33;14.98;;;9.40;;
23716;SDS011;22094;52.130;5.598;2023-07-22T08:48:06;15.95;;;9.85;;
23716;SDS011;22094;52.130;5.598;2023-07-22T08:50:38;12.43;;;8.95;;
23716;SDS011;22094;52.130;5.598;2023-07-22T08:53:09;12.38;;;7.90;;
23716;SDS011;22094;52.130;5.598;2023-07-22T08:55:36;12.10;;;7.97;;
23716;SDS011;22094;52.130;5.598;2023-07-22T08:58:05;10.23;;;7.35;;
23716;SDS011;22094;52.130;5.598;2023-07-22T09:00:33;11.48;;;7.65;;
23716;SDS011;22094;52.130;5.598;2023-07-22T09:02:59;9.95;;;7.60;;
23716;SDS011;22094;52.130;5.598;2023-07-22T09:05:26;13.80;;;7.20;;
23716;SDS011;22094;52.130;5.598;2023-07-22T09:07:52;11.32;;;7.25;;
23716;SDS011;22094;52.130;5.598;2023-07-22T09:10:19;10.07;;;7.07;;
23716;SDS011;22094;52.130;5.598;2023-07-22T09:12:46;9.48;;;6.63;;
23716;SDS011;22094;52.130;5.598;2023-07-22T09:15:12;10.15;;;7.20;;
23716;SDS011;22094;52.130;5.598;2023-07-22T09:17:38;10.57;;;6.50;;
23716;SDS011;22094;52.130;5.598;2023-07-22T09:20:05;9.73;;;6.28;;
23716;SDS011;22094;52.130;5.598;2023-07-22T09:22:31;8.98;;;6.22;;
23716;SDS011;22094;52.130;5.598;2023-07-22T09:25:11;8.40;;;5.70;;
23716;SDS011;22094;52.130;5.598;2023-07-22T09:27:41;9.38;;;6.13;;
23716;SDS011;22094;52.130;5.598;2023-07-22T09:30:23;11.55;;;6.00;;
23716;SDS011;22094;52.130;5.598;2023-07-22T09:32:59;9.50;;;5.35;;
23716;SDS011;22094;52.130;5.598;2023-07-22T09:35:28;6.32;;;4.97;;
23716;SDS011;22094;52.130;5.598;2023-07-22T09:37:55;7.50;;;4.70;;
23716;SDS011;22094;52.130;5.598;2023-07-22T09:40:25;9.75;;;6.03;;
23716;SDS011;22094;52.130;5.598;2023-07-22T09:42:52;10.70;;;5.93;;
23716;SDS011;22094;52.130;5.598;2023-07-22T09:45:23;8.57;;;5.20;;
23716;SDS011;22094;52.130;5.598;2023-07-22T09:47:50;10.20;;;5.93;;
23716;SDS011;22094;52.130;5.598;2023-07-22T09:52:48;11.75;;;6.50;;
23716;SDS011;22094;52.130;5.598;2023-07-22T09:55:19;13.07;;;6.22;;
23716;SDS011;22094;52.130;5.598;2023-07-22T09:58:01;7.28;;;5.57;;
23716;SDS011;22094;52.130;5.598;2023-07-22T10:00:28;8.07;;;5.20;;
23716;SDS011;22094;52.130;5.598;2023-07-22T10:02:59;9.70;;;6.07;;
23716;SDS011;22094;52.130;5.598;2023-07-22T10:05:26;12.05;;;6.47;;
23716;SDS011;22094;52.130;5.598;2023-07-22T10:07:57;8.65;;;6.28;;
23716;SDS011;22094;52.130;5.598;2023-07-22T10:10:25;9.93;;;6.30;;
23716;SDS011;22094;52.130;5.598;2023-07-22T10:12:58;9.00;;;6.63;;
23716;SDS011;22094;52.130;5.598;2023-07-22T10:15:25;9.27;;;7.22;;
23716;SDS011;22094;52.130;5.598;2023-07-22T10:17:53;10.52;;;7.10;;
23716;SDS011;22094;52.130;5.598;2023-07-22T10:20:19;9.43;;;6.78;;
23716;SDS011;22094;52.130;5.598;2023-07-22T10:22:46;11.75;;;7.10;;
23716;SDS011;22094;52.130;5.598;2023-07-22T10:25:14;11.43;;;7.30;;
23716;SDS011;22094;52.130;5.598;2023-07-22T10:27:40;10.50;;;6.50;;
23716;SDS011;22094;52.130;5.598;2023-07-22T10:30:13;10.88;;;7.07;;
23716;SDS011;22094;52.130;5.598;2023-07-22T10:32:41;12.18;;;6.60;;
23716;SDS011;22094;52.130;5.598;2023-07-22T10:35:09;14.13;;;6.45;;
23716;SDS011;22094;52.130;5.598;2023-07-22T10:37:35;10.75;;;6.75;;
23716;SDS011;22094;52.130;5.598;2023-07-22T10:40:25;11.13;;;6.60;;
23716;SDS011;22094;52.130;5.598;2023-07-22T10:43:14;9.98;;;6.75;;
23716;SDS011;22094;52.130;5.598;2023-07-22T10:45:43;8.88;;;6.15;;
23716;SDS011;22094;52.130;5.598;2023-07-22T10:48:14;7.47;;;6.15;;
23716;SDS011;22094;52.130;5.598;2023-07-22T10:50:52;11.65;;;5.53;;
23716;SDS011;22094;52.130;5.598;2023-07-22T10:53:31;7.35;;;5.32;;
23716;SDS011;22094;52.130;5.598;2023-07-22T11:09:33;8.00;;;5.00;;
23716;SDS011;22094;52.130;5.598;2023-07-22T11:12:06;8.70;;;5.90;;
23716;SDS011;22094;52.130;5.598;2023-07-22T11:14:49;12.45;;;6.30;;
23716;SDS011;22094;52.130;5.598;2023-07-22T11:17:16;9.98;;;6.05;;
23716;SDS011;22094;52.130;5.598;2023-07-22T11:19:43;19.17;;;7.18;;
23716;SDS011;22094;52.130;5.598;2023-07-22T11:22:10;13.40;;;7.05;;
23716;SDS011;22094;52.130;5.598;2023-07-22T11:24:35;10.30;;;6.50;;
23716;SDS011;22094;52.130;5.598;2023-07-22T11:27:05;9.55;;;6.45;;
23716;SDS011;22094;52.130;5.598;2023-07-22T11:29:33;10.48;;;5.75;;
23716;SDS011;22094;52.130;5.598;2023-07-22T11:31:59;9.88;;;5.65;;
23716;SDS011;22094;52.130;5.598;2023-07-22T11:34:25;8.63;;;5.38;;
23716;SDS011;22094;52.130;5.598;2023-07-22T11:36:52;9.07;;;5.63;;
23716;SDS011;22094;52.130;5.598;2023-07-22T11:39:19;6.68;;;5.50;;
23716;SDS011;22094;52.130;5.598;2023-07-22T11:41:45;11.27;;;5.65;;
23716;SDS011;22094;52.130;5.598;2023-07-22T11:44:13;11.45;;;5.50;;
23716;SDS011;22094;52.130;5.598;2023-07-22T11:46:56;12.68;;;5.82;;
23716;SDS011;22094;52.130;5.598;2023-07-22T11:51:56;8.77;;;5.32;;
23716;SDS011;22094;52.130;5.598;2023-07-22T11:54:29;7.43;;;5.45;;
23716;SDS011;22094;52.130;5.598;2023-07-22T11:56:56;8.70;;;5.55;;
23716;SDS011;22094;52.130;5.598;2023-07-22T11:59:36;7.95;;;5.07;;
23716;SDS011;22094;52.130;5.598;2023-07-22T12:02:11;8.88;;;5.30;;
23716;SDS011;22094;52.130;5.598;2023-07-22T12:04:53;8.25;;;4.88;;
23716;SDS011;22094;52.130;5.598;2023-07-22T12:07:25;9.38;;;4.95;;
23716;SDS011;22094;52.130;5.598;2023-07-22T12:09:55;7.35;;;5.03;;
23716;SDS011;22094;52.130;5.598;2023-07-22T12:12:34;8.82;;;5.13;;
23716;SDS011;22094;52.130;5.598;2023-07-22T12:17:30;11.55;;;6.68;;
23716;SDS011;22094;52.130;5.598;2023-07-22T12:20:11;13.98;;;7.53;;
23716;SDS011;22094;52.130;5.598;2023-07-22T12:22:37;12.75;;;8.32;;
23716;SDS011;22094;52.130;5.598;2023-07-22T12:25:03;14.52;;;9.57;;
23716;SDS011;22094;52.130;5.598;2023-07-22T12:27:29;14.40;;;10.02;;
23716;SDS011;22094;52.130;5.598;2023-07-22T12:29:54;15.50;;;10.18;;
23716;SDS011;22094;52.130;5.598;2023-07-22T12:32:20;10.85;;;9.30;;
23716;SDS011;22094;52.130;5.598;2023-07-22T12:34:45;14.27;;;9.70;;
23716;SDS011;22094;52.130;5.598;2023-07-22T12:37:11;12.38;;;9.43;;
23716;SDS011;22094;52.130;5.598;2023-07-22T12:39:37;14.88;;;9.27;;
23716;SDS011;22094;52.130;5.598;2023-07-22T12:42:02;9.20;;;8.07;;
23716;SDS011;22094;52.130;5.598;2023-07-22T12:44:28;9.40;;;8.15;;
23716;SDS011;22094;52.130;5.598;2023-07-22T12:46:55;9.02;;;7.10;;
23716;SDS011;22094;52.130;5.598;2023-07-22T12:49:20;8.23;;;6.57;;
23716;SDS011;22094;52.130;5.598;2023-07-22T12:51:46;7.18;;;6.45;;
23716;SDS011;22094;52.130;5.598;2023-07-22T12:54:12;7.43;;;5.88;;
23716;SDS011;22094;52.130;5.598;2023-07-22T12:56:37;6.95;;;6.35;;
23716;SDS011;22094;52.130;5.598;2023-07-22T12:59:03;8.65;;;6.47;;
23716;SDS011;22094;52.130;5.598;2023-07-22T13:01:28;6.78;;;5.82;;
23716;SDS011;22094;52.130;5.598;2023-07-22T13:03:54;9.52;;;8.13;;
23716;SDS011;22094;52.130;5.598;2023-07-22T13:06:19;11.02;;;6.75;;
23716;SDS011;22094;52.130;5.598;2023-07-22T13:08:45;10.40;;;6.20;;
23716;SDS011;22094;52.130;5.598;2023-07-22T13:11:10;10.00;;;7.05;;
23716;SDS011;22094;52.130;5.598;2023-07-22T13:13:36;11.25;;;6.85;;
23716;SDS011;22094;52.130;5.598;2023-07-22T13:16:02;10.95;;;6.40;;
23716;SDS011;22094;52.130;5.598;2023-07-22T13:18:28;8.27;;;6.28;;
23716;SDS011;22094;52.130;5.598;2023-07-22T13:20:53;9.50;;;6.03;;
23716;SDS011;22094;52.130;5.598;2023-07-22T13:23:19;9.07;;;6.13;;
23716;SDS011;22094;52.130;5.598;2023-07-22T13:25:45;9.90;;;6.20;;
23716;SDS011;22094;52.130;5.598;2023-07-22T13:28:10;10.45;;;5.72;;
23716;SDS011;22094;52.130;5.598;2023-07-22T13:30:36;8.52;;;6.13;;
23716;SDS011;22094;52.130;5.598;2023-07-22T13:33:01;7.95;;;5.80;;
23716;SDS011;22094;52.130;5.598;2023-07-22T13:35:28;7.93;;;6.10;;
23716;SDS011;22094;52.130;5.598;2023-07-22T13:37:53;9.68;;;6.70;;
23716;SDS011;22094;52.130;5.598;2023-07-22T13:40:19;7.47;;;6.20;;
23716;SDS011;22094;52.130;5.598;2023-07-22T13:42:45;11.45;;;6.43;;
23716;SDS011;22094;52.130;5.598;2023-07-22T13:45:11;7.72;;;5.72;;
23716;SDS011;22094;52.130;5.598;2023-07-22T13:47:37;10.02;;;5.25;;
23716;SDS011;22094;52.130;5.598;2023-07-22T13:50:02;10.32;;;5.30;;
23716;SDS011;22094;52.130;5.598;2023-07-22T13:52:28;7.68;;;4.78;;
23716;SDS011;22094;52.130;5.598;2023-07-22T13:54:54;10.55;;;4.88;;
23716;SDS011;22094;52.130;5.598;2023-07-22T13:57:19;6.50;;;4.15;;
23716;SDS011;22094;52.130;5.598;2023-07-22T13:59:45;6.53;;;4.78;;
23716;SDS011;22094;52.130;5.598;2023-07-22T14:02:11;7.00;;;4.13;;
23716;SDS011;22094;52.130;5.598;2023-07-22T14:04:36;9.60;;;4.95;;
23716;SDS011;22094;52.130;5.598;2023-07-22T14:07:02;8.75;;;4.20;;
23716;SDS011;22094;52.130;5.598;2023-07-22T14:09:27;5.72;;;4.20;;
23716;SDS011;22094;52.130;5.598;2023-07-22T14:11:53;6.22;;;3.95;;
23716;SDS011;22094;52.130;5.598;2023-07-22T14:14:18;4.90;;;4.05;;
23716;SDS011;22094;52.130;5.598;2023-07-22T14:16:44;9.95;;;4.07;;
23716;SDS011;22094;52.130;5.598;2023-07-22T14:19:10;6.97;;;3.55;;
23716;SDS011;22094;52.130;5.598;2023-07-22T14:21:35;6.30;;;3.10;;
23716;SDS011;22094;52.130;5.598;2023-07-22T14:24:01;4.15;;;3.00;;
23716;SDS011;22094;52.130;5.598;2023-07-22T14:26:27;5.05;;;2.85;;
23716;SDS011;22094;52.130;5.598;2023-07-22T14:28:52;6.30;;;2.85;;
23716;SDS011;22094;52.130;5.598;2023-07-22T14:31:18;4.97;;;3.10;;
23716;SDS011;22094;52.130;5.598;2023-07-22T14:33:43;5.32;;;3.65;;
23716;SDS011;22094;52.130;5.598;2023-07-22T14:36:09;6.13;;;3.90;;
23716;SDS011;22094;52.130;5.598;2023-07-22T14:38:34;6.85;;;4.05;;
23716;SDS011;22094;52.130;5.598;2023-07-22T14:41:01;7.43;;;4.45;;
23716;SDS011;22094;52.130;5.598;2023-07-22T14:43:28;5.95;;;4.18;;
23716;SDS011;22094;52.130;5.598;2023-07-22T14:45:53;6.13;;;4.25;;
23716;SDS011;22094;52.130;5.598;2023-07-22T14:48:19;5.97;;;3.10;;
23716;SDS011;22094;52.130;5.598;2023-07-22T14:50:45;3.42;;;2.78;;
23716;SDS011;22094;52.130;5.598;2023-07-22T14:53:10;5.45;;;2.85;;